createdAt,value
2018-02-04T00:00:03.143Z,0
2018-02-04T00:00:43.821Z,0
2018-02-04T00:01:24.412Z,0
2018-02-04T00:02:04.971Z,0
2018-02-04T00:02:45.484Z,0
2018-02-04T00:03:26.033Z,0
2018-02-04T00:04:06.534Z,0
2018-02-04T00:04:47.043Z,0
2018-02-04T00:05:27.570Z,0
2018-02-04T00:06:08.092Z,0
2018-02-04T00:06:48.688Z,0
2018-02-04T00:07:29.167Z,0
2018-02-04T00:08:09.741Z,0
2018-02-04T00:08:50.325Z,0
2018-02-04T00:09:30.846Z,0
2018-02-04T00:10:11.368Z,0
2018-02-04T00:10:51.927Z,0
2018-02-04T00:11:32.418Z,0
2018-02-04T00:12:12.945Z,0
2018-02-04T00:12:53.525Z,0
2018-02-04T00:13:34.027Z,0
2018-02-04T00:14:14.614Z,0
2018-02-04T00:14:55.134Z,0
2018-02-04T00:15:35.740Z,0
2018-02-04T00:16:16.222Z,0
2018-02-04T00:16:56.713Z,0
2018-02-04T00:17:37.279Z,0
2018-02-04T00:18:17.794Z,0
2018-02-04T00:18:59.193Z,0
2018-02-04T00:19:39.722Z,0
2018-02-04T00:20:20.243Z,0
2018-02-04T00:21:00.761Z,0
2018-02-04T00:21:41.318Z,0
2018-02-04T00:22:21.893Z,0
2018-02-04T00:23:02.462Z,0
2018-02-04T00:23:43.001Z,0
2018-02-04T00:24:23.579Z,0
2018-02-04T00:25:04.081Z,0
2018-02-04T00:25:44.751Z,0
2018-02-04T00:26:25.192Z,0
2018-02-04T00:27:05.759Z,0
2018-02-04T00:27:46.294Z,0
2018-02-04T00:28:26.830Z,0
2018-02-04T00:29:07.446Z,0
2018-02-04T00:29:48.042Z,0
2018-02-04T00:30:28.583Z,0
2018-02-04T00:31:09.091Z,0
2018-02-04T00:31:49.631Z,0
2018-02-04T00:32:30.165Z,0
2018-02-04T00:33:10.716Z,0
2018-02-04T00:33:51.271Z,0
2018-02-04T00:34:31.835Z,0
2018-02-04T00:35:12.309Z,0
2018-02-04T00:35:52.850Z,0
2018-02-04T00:36:33.407Z,0
2018-02-04T00:37:13.929Z,0
2018-02-04T00:37:54.505Z,0
2018-02-04T00:38:34.999Z,0
2018-02-04T00:39:15.637Z,0
2018-02-04T00:39:56.187Z,0
2018-02-04T00:40:36.747Z,0
2018-02-04T00:41:17.223Z,0
2018-02-04T00:41:57.769Z,0
2018-02-04T00:42:38.443Z,0
2018-02-04T00:43:18.874Z,0
2018-02-04T00:43:59.450Z,0
2018-02-04T00:44:40.050Z,0
2018-02-04T00:45:20.526Z,0
2018-02-04T00:46:01.299Z,0
2018-02-04T00:46:41.776Z,0
2018-02-04T00:47:22.382Z,0
2018-02-04T00:48:02.948Z,0
2018-02-04T00:48:43.507Z,0
2018-02-04T00:49:24.040Z,0
2018-02-04T00:50:04.578Z,0
2018-02-04T00:50:45.172Z,0
2018-02-04T00:51:25.711Z,0
2018-02-04T00:52:06.248Z,0
2018-02-04T00:52:46.849Z,0
2018-02-04T00:53:27.351Z,0
2018-02-04T00:54:07.925Z,0
2018-02-04T00:54:48.478Z,0
2018-02-04T00:55:29.013Z,0
2018-02-04T00:56:09.669Z,0
2018-02-04T00:56:50.162Z,0
2018-02-04T00:57:30.659Z,0
2018-02-04T00:58:11.196Z,0
2018-02-04T00:58:51.757Z,0
2018-02-04T00:59:32.283Z,0
2018-02-04T01:00:12.861Z,0
2018-02-04T01:00:53.363Z,0
2018-02-04T01:01:33.900Z,0
2018-02-04T01:02:14.423Z,0
2018-02-04T01:02:54.999Z,0
2018-02-04T01:03:35.521Z,0
2018-02-04T01:04:16.128Z,0
2018-02-04T01:04:56.687Z,0
2018-02-04T01:05:37.126Z,0
2018-02-04T01:06:17.732Z,0
2018-02-04T01:06:58.251Z,0
2018-02-04T01:07:38.791Z,0
2018-02-04T01:08:19.333Z,0
2018-02-04T01:08:59.863Z,0
2018-02-04T01:09:40.390Z,0
2018-02-04T01:10:20.946Z,0
2018-02-04T01:11:01.456Z,0
2018-02-04T01:11:41.987Z,0
2018-02-04T01:12:22.550Z,0
2018-02-04T01:13:03.074Z,0
2018-02-04T01:13:43.631Z,0
2018-02-04T01:14:24.201Z,0
2018-02-04T01:15:04.748Z,0
2018-02-04T01:15:45.305Z,0
2018-02-04T01:16:25.837Z,0
2018-02-04T01:17:06.403Z,0
2018-02-04T01:17:46.914Z,0
2018-02-04T01:18:27.500Z,0
2018-02-04T01:19:08.055Z,0
2018-02-04T01:19:48.564Z,0
2018-02-04T01:20:29.118Z,0
2018-02-04T01:21:09.647Z,0
2018-02-04T01:21:50.161Z,0
2018-02-04T01:22:30.760Z,0
2018-02-04T01:23:11.234Z,0
2018-02-04T01:23:51.793Z,0
2018-02-04T01:24:32.346Z,0
2018-02-04T01:25:12.890Z,0
2018-02-04T01:25:53.436Z,0
2018-02-04T01:26:33.962Z,0
2018-02-04T01:27:14.465Z,0
2018-02-04T01:27:55.025Z,0
2018-02-04T01:28:35.556Z,0
2018-02-04T01:29:16.112Z,0
2018-02-04T01:29:56.687Z,0
2018-02-04T01:30:37.215Z,0
2018-02-04T01:31:17.775Z,0
2018-02-04T01:31:58.350Z,0
2018-02-04T01:32:38.854Z,0
2018-02-04T01:33:19.433Z,0
2018-02-04T01:33:59.952Z,0
2018-02-04T01:34:40.523Z,0
2018-02-04T01:35:21.068Z,0
2018-02-04T01:36:01.579Z,0
2018-02-04T01:36:42.074Z,0
2018-02-04T01:37:22.636Z,0
2018-02-04T01:38:03.264Z,0
2018-02-04T01:38:43.843Z,0
2018-02-04T01:39:24.266Z,0
2018-02-04T01:40:04.820Z,0
2018-02-04T01:40:45.393Z,0
2018-02-04T01:41:25.920Z,0
2018-02-04T01:42:06.464Z,0
2018-02-04T01:42:47.021Z,0
2018-02-04T01:43:27.564Z,0
2018-02-04T01:44:08.088Z,0
2018-02-04T01:44:48.637Z,0
2018-02-04T01:45:29.166Z,0
2018-02-04T01:46:09.707Z,0
2018-02-04T01:46:50.265Z,0
2018-02-04T01:47:30.811Z,0
2018-02-04T01:48:11.394Z,0
2018-02-04T01:48:51.950Z,0
2018-02-04T01:49:32.471Z,0
2018-02-04T01:50:13.031Z,0
2018-02-04T01:50:53.570Z,0
2018-02-04T01:51:34.112Z,0
2018-02-04T01:52:14.677Z,0
2018-02-04T01:52:55.234Z,0
2018-02-04T01:53:35.765Z,0
2018-02-04T01:54:16.310Z,0
2018-02-04T01:54:56.941Z,0
2018-02-04T01:55:37.437Z,0
2018-02-04T01:56:17.976Z,0
2018-02-04T01:56:58.499Z,0
2018-02-04T01:57:39.100Z,0
2018-02-04T01:58:20.448Z,0
2018-02-04T01:59:01.000Z,0
2018-02-04T01:59:41.549Z,0
2018-02-04T02:00:22.119Z,0
2018-02-04T02:01:02.673Z,0
2018-02-04T02:01:43.199Z,0
2018-02-04T02:02:23.744Z,0
2018-02-04T02:03:04.295Z,0
2018-02-04T02:03:44.830Z,0
2018-02-04T02:04:25.350Z,0
2018-02-04T02:05:05.901Z,0
2018-02-04T02:05:46.520Z,0
2018-02-04T02:06:27.067Z,0
2018-02-04T02:07:07.630Z,0
2018-02-04T02:07:48.137Z,0
2018-02-04T02:08:28.624Z,0
2018-02-04T02:09:09.166Z,0
2018-02-04T02:09:49.707Z,0
2018-02-04T02:10:30.254Z,0
2018-02-04T02:11:10.859Z,0
2018-02-04T02:11:51.397Z,0
2018-02-04T02:12:31.967Z,0
2018-02-04T02:13:12.494Z,0
2018-02-04T02:13:52.990Z,0
2018-02-04T02:14:33.524Z,0
2018-02-04T02:15:14.071Z,0
2018-02-04T02:15:54.594Z,0
2018-02-04T02:16:35.224Z,0
2018-02-04T02:17:15.768Z,0
2018-02-04T02:17:56.231Z,0
2018-02-04T02:18:36.795Z,0
2018-02-04T02:19:17.344Z,0
2018-02-04T02:19:57.882Z,0
2018-02-04T02:20:38.443Z,0
2018-02-04T02:21:18.986Z,0
2018-02-04T02:21:59.563Z,0
2018-02-04T02:22:40.041Z,0
2018-02-04T02:23:20.603Z,0
2018-02-04T02:24:01.124Z,0
2018-02-04T02:24:41.637Z,0
2018-02-04T02:25:22.231Z,0
2018-02-04T02:26:02.796Z,0
2018-02-04T02:26:43.292Z,0
2018-02-04T02:27:23.906Z,0
2018-02-04T02:28:04.410Z,0
2018-02-04T02:28:44.947Z,0
2018-02-04T02:29:25.520Z,0
2018-02-04T02:30:06.077Z,0
2018-02-04T02:30:46.575Z,0
2018-02-04T02:31:27.095Z,0
2018-02-04T02:32:07.804Z,0
2018-02-04T02:32:48.207Z,0
2018-02-04T02:33:28.752Z,0
2018-02-04T02:34:09.291Z,0
2018-02-04T02:34:49.803Z,0
2018-02-04T02:35:30.344Z,0
2018-02-04T02:36:10.925Z,0
2018-02-04T02:36:51.452Z,0
2018-02-04T02:37:31.967Z,0
2018-02-04T02:38:12.512Z,0
2018-02-04T02:38:53.051Z,0
2018-02-04T02:39:33.576Z,0
2018-02-04T02:40:14.110Z,0
2018-02-04T02:40:54.668Z,0
2018-02-04T02:41:35.210Z,0
2018-02-04T02:42:15.718Z,0
2018-02-04T02:42:56.247Z,0
2018-02-04T02:43:36.779Z,0
2018-02-04T02:44:17.295Z,0
2018-02-04T02:44:57.827Z,0
2018-02-04T02:45:38.360Z,0
2018-02-04T02:46:18.902Z,0
2018-02-04T02:46:59.499Z,0
2018-02-04T02:47:40.022Z,0
2018-02-04T02:48:20.615Z,0
2018-02-04T02:49:01.106Z,0
2018-02-04T02:49:41.682Z,0
2018-02-04T02:50:22.206Z,0
2018-02-04T02:51:02.796Z,0
2018-02-04T02:51:43.233Z,0
2018-02-04T02:52:23.766Z,0
2018-02-04T02:53:04.303Z,0
2018-02-04T02:53:44.887Z,0
2018-02-04T02:54:25.430Z,0
2018-02-04T02:55:05.961Z,0
2018-02-04T02:55:46.451Z,0
2018-02-04T02:56:27.082Z,0
2018-02-04T02:57:07.622Z,0
2018-02-04T02:57:48.179Z,0
2018-02-04T02:58:28.732Z,0
2018-02-04T02:59:09.197Z,0
2018-02-04T02:59:49.734Z,0
2018-02-04T03:00:30.322Z,0
2018-02-04T03:01:10.853Z,0
2018-02-04T03:01:51.411Z,0
2018-02-04T03:02:31.940Z,0
2018-02-04T03:03:12.469Z,0
2018-02-04T03:03:52.993Z,0
2018-02-04T03:04:33.564Z,0
2018-02-04T03:05:14.074Z,0
2018-02-04T03:05:54.622Z,0
2018-02-04T03:06:35.151Z,0
2018-02-04T03:07:15.703Z,0
2018-02-04T03:07:56.241Z,0
2018-02-04T03:08:36.802Z,0
2018-02-04T03:09:17.318Z,0
2018-02-04T03:09:57.871Z,0
2018-02-04T03:10:38.454Z,0
2018-02-04T03:11:18.995Z,0
2018-02-04T03:11:59.580Z,0
2018-02-04T03:12:40.101Z,0
2018-02-04T03:13:20.622Z,0
2018-02-04T03:14:01.256Z,0
2018-02-04T03:14:41.756Z,0
2018-02-04T03:15:22.308Z,0
2018-02-04T03:16:02.864Z,0
2018-02-04T03:16:43.395Z,0
2018-02-04T03:17:23.954Z,0
2018-02-04T03:18:04.552Z,0
2018-02-04T03:18:45.087Z,0
2018-02-04T03:19:25.691Z,0
2018-02-04T03:20:06.220Z,0
2018-02-04T03:20:46.728Z,0
2018-02-04T03:21:27.207Z,0
2018-02-04T03:22:07.766Z,0
2018-02-04T03:22:48.454Z,0
2018-02-04T03:23:28.972Z,0
2018-02-04T03:24:09.524Z,0
2018-02-04T03:24:50.058Z,0
2018-02-04T03:25:30.596Z,0
2018-02-04T03:26:11.124Z,0
2018-02-04T03:26:51.625Z,0
2018-02-04T03:27:32.198Z,0
2018-02-04T03:28:12.737Z,0
2018-02-04T03:28:53.305Z,0
2018-02-04T03:29:33.849Z,0
2018-02-04T03:30:14.348Z,0
2018-02-04T03:30:54.930Z,0
2018-02-04T03:31:35.426Z,0
2018-02-04T03:32:15.982Z,0
2018-02-04T03:32:56.522Z,0
2018-02-04T03:33:37.034Z,0
2018-02-04T03:34:17.626Z,0
2018-02-04T03:34:58.196Z,0
2018-02-04T03:35:38.714Z,0
2018-02-04T03:36:19.242Z,0
2018-02-04T03:36:59.789Z,0
2018-02-04T03:37:40.302Z,0
2018-02-04T03:38:20.808Z,0
2018-02-04T03:39:01.371Z,0
2018-02-04T03:39:41.881Z,0
2018-02-04T03:40:22.419Z,0
2018-02-04T03:41:02.977Z,0
2018-02-04T03:41:43.637Z,0
2018-02-04T03:42:24.142Z,0
2018-02-04T03:43:04.670Z,0
2018-02-04T03:43:45.275Z,0
2018-02-04T03:44:25.758Z,0
2018-02-04T03:45:06.327Z,0
2018-02-04T03:45:46.867Z,0
2018-02-04T03:46:27.405Z,0
2018-02-04T03:47:07.943Z,0
2018-02-04T03:47:48.532Z,0
2018-02-04T03:48:29.088Z,0
2018-02-04T03:49:09.644Z,0
2018-02-04T03:49:50.280Z,0
2018-02-04T03:50:30.803Z,0
2018-02-04T03:51:11.324Z,0
2018-02-04T03:51:51.842Z,0
2018-02-04T03:52:32.384Z,0
2018-02-04T03:53:12.921Z,0
2018-02-04T03:53:53.481Z,0
2018-02-04T03:54:34.055Z,0
2018-02-04T03:55:14.613Z,0
2018-02-04T03:55:55.100Z,0
2018-02-04T03:56:35.632Z,0
2018-02-04T03:57:16.188Z,0
2018-02-04T03:57:56.753Z,0
2018-02-04T03:58:37.270Z,0
2018-02-04T03:59:17.836Z,0
2018-02-04T03:59:58.339Z,0
2018-02-04T04:00:38.884Z,0
2018-02-04T04:01:19.456Z,0
2018-02-04T04:02:00.012Z,0
2018-02-04T04:02:40.553Z,0
2018-02-04T04:03:21.116Z,0
2018-02-04T04:04:01.660Z,0
2018-02-04T04:04:42.213Z,0
2018-02-04T04:05:22.736Z,0
2018-02-04T04:06:03.258Z,0
2018-02-04T04:06:43.750Z,0
2018-02-04T04:07:24.294Z,0
2018-02-04T04:08:04.908Z,0
2018-02-04T04:08:45.406Z,0
2018-02-04T04:09:25.953Z,0
2018-02-04T04:10:06.511Z,0
2018-02-04T04:10:47.062Z,0
2018-02-04T04:11:27.604Z,0
2018-02-04T04:12:08.109Z,0
2018-02-04T04:12:48.653Z,0
2018-02-04T04:13:29.185Z,0
2018-02-04T04:14:09.729Z,0
2018-02-04T04:14:50.290Z,0
2018-02-04T04:15:30.774Z,0
2018-02-04T04:16:11.309Z,0
2018-02-04T04:16:51.863Z,0
2018-02-04T04:17:32.406Z,0
2018-02-04T04:18:12.979Z,0
2018-02-04T04:18:53.590Z,0
2018-02-04T04:19:34.157Z,0
2018-02-04T04:20:14.727Z,0
2018-02-04T04:20:55.200Z,0
2018-02-04T04:21:35.744Z,0
2018-02-04T04:22:16.301Z,0
2018-02-04T04:22:56.891Z,0
2018-02-04T04:23:37.419Z,0
2018-02-04T04:24:18.004Z,0
2018-02-04T04:24:58.523Z,0
2018-02-04T04:25:39.072Z,0
2018-02-04T04:26:19.603Z,0
2018-02-04T04:27:00.135Z,0
2018-02-04T04:27:40.751Z,0
2018-02-04T04:28:21.346Z,0
2018-02-04T04:29:01.868Z,0
2018-02-04T04:29:42.385Z,0
2018-02-04T04:30:22.877Z,0
2018-02-04T04:31:03.441Z,0
2018-02-04T04:31:43.946Z,0
2018-02-04T04:32:24.514Z,0
2018-02-04T04:33:05.111Z,0
2018-02-04T04:33:45.606Z,0
2018-02-04T04:34:26.178Z,0
2018-02-04T04:35:06.703Z,0
2018-02-04T04:35:47.334Z,0
2018-02-04T04:36:27.911Z,0
2018-02-04T04:37:08.403Z,0
2018-02-04T04:37:48.973Z,0
2018-02-04T04:38:29.549Z,0
2018-02-04T04:39:10.053Z,0
2018-02-04T04:39:50.571Z,0
2018-02-04T04:40:31.134Z,0
2018-02-04T04:41:11.776Z,0
2018-02-04T04:41:52.302Z,0
2018-02-04T04:42:33.558Z,0
2018-02-04T04:43:14.065Z,0
2018-02-04T04:43:54.577Z,0
2018-02-04T04:44:35.128Z,0
2018-02-04T04:45:15.649Z,0
2018-02-04T04:45:56.180Z,0
2018-02-04T04:46:36.704Z,0
2018-02-04T04:47:17.268Z,0
2018-02-04T04:47:57.795Z,0
2018-02-04T04:48:38.303Z,0
2018-02-04T04:49:18.827Z,0
2018-02-04T04:49:59.388Z,0
2018-02-04T04:50:39.945Z,0
2018-02-04T04:51:20.438Z,0
2018-02-04T04:52:00.941Z,0
2018-02-04T04:52:41.453Z,0
2018-02-04T04:53:22.036Z,0
2018-02-04T04:54:02.630Z,0
2018-02-04T04:54:43.153Z,0
2018-02-04T04:55:23.641Z,0
2018-02-04T04:56:04.172Z,0
2018-02-04T04:56:44.719Z,0
2018-02-04T04:57:25.397Z,0
2018-02-04T04:58:05.756Z,0
2018-02-04T04:58:46.276Z,0
2018-02-04T04:59:26.807Z,0
2018-02-04T05:00:07.379Z,0
2018-02-04T05:00:47.938Z,0
2018-02-04T05:01:28.500Z,0
2018-02-04T05:02:09.005Z,0
2018-02-04T05:02:49.556Z,0
2018-02-04T05:03:30.122Z,0
2018-02-04T05:04:10.576Z,0
2018-02-04T05:04:51.182Z,0
2018-02-04T05:05:31.661Z,0
2018-02-04T05:06:12.229Z,0
2018-02-04T05:06:52.774Z,0
2018-02-04T05:07:33.312Z,0
2018-02-04T05:08:13.848Z,0
2018-02-04T05:08:54.351Z,0
2018-02-04T05:09:34.921Z,0
2018-02-04T05:10:15.447Z,0
2018-02-04T05:10:56.023Z,0
2018-02-04T05:11:36.582Z,0
2018-02-04T05:12:17.138Z,0
2018-02-04T05:12:57.698Z,0
2018-02-04T05:13:38.266Z,0
2018-02-04T05:14:18.831Z,0
2018-02-04T05:14:59.299Z,0
2018-02-04T05:15:39.865Z,0
2018-02-04T05:16:20.374Z,0
2018-02-04T05:17:00.946Z,0
2018-02-04T05:17:41.465Z,0
2018-02-04T05:18:22.024Z,0
2018-02-04T05:19:02.526Z,0
2018-02-04T05:19:43.226Z,0
2018-02-04T05:20:23.699Z,0
2018-02-04T05:21:04.257Z,0
2018-02-04T05:21:44.845Z,0
2018-02-04T05:22:25.357Z,0
2018-02-04T05:23:06.039Z,0
2018-02-04T05:23:46.583Z,0
2018-02-04T05:24:27.081Z,0
2018-02-04T05:25:07.652Z,0
2018-02-04T05:25:48.270Z,0
2018-02-04T05:26:28.810Z,0
2018-02-04T05:27:09.341Z,0
2018-02-04T05:27:49.886Z,0
2018-02-04T05:28:30.413Z,0
2018-02-04T05:29:10.906Z,0
2018-02-04T05:29:51.449Z,0
2018-02-04T05:30:32.024Z,0
2018-02-04T05:31:12.513Z,0
2018-02-04T05:31:53.057Z,0
2018-02-04T05:32:33.643Z,0
2018-02-04T05:33:14.129Z,0
2018-02-04T05:33:54.696Z,0
2018-02-04T05:34:35.189Z,0
2018-02-04T05:35:15.782Z,0
2018-02-04T05:35:56.288Z,0
2018-02-04T05:36:36.831Z,0
2018-02-04T05:37:17.356Z,0
2018-02-04T05:37:57.890Z,0
2018-02-04T05:38:38.438Z,0
2018-02-04T05:39:19.028Z,0
2018-02-04T05:39:59.592Z,0
2018-02-04T05:40:40.149Z,0
2018-02-04T05:41:20.704Z,0
2018-02-04T05:42:01.198Z,0
2018-02-04T05:42:41.740Z,0
2018-02-04T05:43:22.338Z,0
2018-02-04T05:44:02.883Z,0
2018-02-04T05:44:43.391Z,0
2018-02-04T05:45:23.878Z,0
2018-02-04T05:46:04.476Z,0
2018-02-04T05:46:44.999Z,0
2018-02-04T05:47:25.530Z,0
2018-02-04T05:48:06.089Z,0
2018-02-04T05:48:46.562Z,0
2018-02-04T05:49:27.120Z,0
2018-02-04T05:50:07.663Z,0
2018-02-04T05:50:48.202Z,0
2018-02-04T05:51:28.746Z,0
2018-02-04T05:52:09.276Z,0
2018-02-04T05:52:49.779Z,0
2018-02-04T05:53:30.324Z,0
2018-02-04T05:54:10.951Z,0
2018-02-04T05:54:51.476Z,0
2018-02-04T05:55:32.034Z,0
2018-02-04T05:56:12.572Z,0
2018-02-04T05:56:53.118Z,0
2018-02-04T05:57:33.671Z,0
2018-02-04T05:58:14.194Z,0
2018-02-04T05:58:54.750Z,0
2018-02-04T05:59:35.290Z,0
2018-02-04T06:00:15.802Z,0
2018-02-04T06:00:56.348Z,0
2018-02-04T06:01:36.948Z,0
2018-02-04T06:02:17.461Z,0
2018-02-04T06:02:58.010Z,0
2018-02-04T06:03:38.574Z,0
2018-02-04T06:04:19.216Z,0
2018-02-04T06:04:59.761Z,0
2018-02-04T06:05:40.368Z,0
2018-02-04T06:06:20.909Z,0
2018-02-04T06:07:01.405Z,0
2018-02-04T06:07:41.956Z,0
2018-02-04T06:08:22.474Z,0
2018-02-04T06:09:03.020Z,0
2018-02-04T06:09:43.522Z,0
2018-02-04T06:10:24.059Z,0
2018-02-04T06:11:04.593Z,0
2018-02-04T06:11:45.082Z,0
2018-02-04T06:12:25.724Z,0
2018-02-04T06:13:06.243Z,0
2018-02-04T06:13:46.832Z,0
2018-02-04T06:14:27.338Z,0
2018-02-04T06:15:07.880Z,0
2018-02-04T06:15:48.405Z,0
2018-02-04T06:16:28.899Z,0
2018-02-04T06:17:09.462Z,0
2018-02-04T06:17:49.957Z,0
2018-02-04T06:18:30.547Z,0
2018-02-04T06:19:11.058Z,0
2018-02-04T06:19:51.597Z,0
2018-02-04T06:20:32.142Z,0
2018-02-04T06:21:12.683Z,0
2018-02-04T06:21:53.224Z,0
2018-02-04T06:22:33.752Z,0
2018-02-04T06:23:14.300Z,0
2018-02-04T06:23:54.842Z,0
2018-02-04T06:24:35.378Z,0
2018-02-04T06:25:15.952Z,0
2018-02-04T06:25:56.497Z,0
2018-02-04T06:26:36.982Z,0
2018-02-04T06:27:17.537Z,0
2018-02-04T06:27:58.076Z,0
2018-02-04T06:28:39.495Z,0
2018-02-04T06:29:19.177Z,0
2018-02-04T06:29:59.750Z,0
2018-02-04T06:30:40.266Z,0
2018-02-04T06:31:20.806Z,0
2018-02-04T06:32:01.387Z,0
2018-02-04T06:32:41.872Z,0
2018-02-04T06:33:22.431Z,0
2018-02-04T06:34:02.982Z,0
2018-02-04T06:34:43.476Z,0
2018-02-04T06:35:24.028Z,0
2018-02-04T06:36:04.563Z,0
2018-02-04T06:36:45.096Z,0
2018-02-04T06:37:25.604Z,0
2018-02-04T06:38:06.132Z,0
2018-02-04T06:38:46.701Z,0
2018-02-04T06:39:27.237Z,0
2018-02-04T06:40:07.798Z,0
2018-02-04T06:40:48.377Z,0
2018-02-04T06:41:28.904Z,0
2018-02-04T06:42:09.997Z,0
2018-02-04T06:42:50.108Z,0
2018-02-04T06:43:30.470Z,0
2018-02-04T06:44:11.070Z,0
2018-02-04T06:44:51.564Z,0
2018-02-04T06:45:32.149Z,0
2018-02-04T06:46:12.686Z,0
2018-02-04T06:46:53.250Z,0
2018-02-04T06:47:33.778Z,0
2018-02-04T06:48:14.321Z,0
2018-02-04T06:48:54.840Z,0
2018-02-04T06:49:35.401Z,0
2018-02-04T06:50:16.054Z,0
2018-02-04T06:50:56.622Z,0
2018-02-04T06:51:37.288Z,0
2018-02-04T06:52:17.865Z,0
2018-02-04T06:52:58.315Z,0
2018-02-04T06:53:38.844Z,0
2018-02-04T06:54:19.437Z,0
2018-02-04T06:54:59.972Z,0
2018-02-04T06:55:40.448Z,0
2018-02-04T06:56:21.092Z,0
2018-02-04T06:57:01.623Z,0
2018-02-04T06:57:42.174Z,0
2018-02-04T06:58:22.734Z,0
2018-02-04T06:59:03.288Z,0
2018-02-04T06:59:43.844Z,0
2018-02-04T07:00:24.398Z,0
2018-02-04T07:01:04.912Z,0
2018-02-04T07:01:45.453Z,0
2018-02-04T07:02:25.970Z,0
2018-02-04T07:03:06.468Z,0
2018-02-04T07:03:47.154Z,0
2018-02-04T07:04:27.775Z,0
2018-02-04T07:05:08.314Z,0
2018-02-04T07:05:48.803Z,0
2018-02-04T07:06:29.346Z,0
2018-02-04T07:07:09.847Z,0
2018-02-04T07:07:50.374Z,0
2018-02-04T07:08:30.891Z,5
2018-02-04T07:09:11.424Z,5
2018-02-04T07:09:51.952Z,5
2018-02-04T07:10:32.509Z,5
2018-02-04T07:11:13.135Z,5
2018-02-04T07:11:53.660Z,5
2018-02-04T07:12:34.218Z,5
2018-02-04T07:13:14.736Z,5
2018-02-04T07:13:55.310Z,5
2018-02-04T07:14:35.844Z,5
2018-02-04T07:15:16.418Z,5
2018-02-04T07:15:56.925Z,5
2018-02-04T07:16:37.439Z,5
2018-02-04T07:17:18.001Z,5
2018-02-04T07:17:58.551Z,5
2018-02-04T07:18:39.122Z,5
2018-02-04T07:19:19.690Z,5
2018-02-04T07:20:00.255Z,5
2018-02-04T07:20:40.803Z,5
2018-02-04T07:21:21.368Z,5
2018-02-04T07:22:01.909Z,10
2018-02-04T07:22:42.455Z,10
2018-02-04T07:23:23.023Z,10
2018-02-04T07:24:03.587Z,10
2018-02-04T07:24:44.125Z,10
2018-02-04T07:25:24.694Z,10
2018-02-04T07:26:05.242Z,10
2018-02-04T07:26:45.766Z,10
2018-02-04T07:27:26.321Z,10
2018-02-04T07:28:06.833Z,15
2018-02-04T07:28:47.406Z,15
2018-02-04T07:29:27.952Z,15
2018-02-04T07:30:08.453Z,15
2018-02-04T07:30:49.020Z,15
2018-02-04T07:31:29.567Z,15
2018-02-04T07:32:10.114Z,15
2018-02-04T07:32:50.685Z,20
2018-02-04T07:33:31.314Z,20
2018-02-04T07:34:11.775Z,20
2018-02-04T07:34:52.311Z,20
2018-02-04T07:35:32.866Z,20
2018-02-04T07:36:13.395Z,20
2018-02-04T07:36:53.960Z,20
2018-02-04T07:37:34.526Z,20
2018-02-04T07:38:15.065Z,20
2018-02-04T07:38:55.609Z,20
2018-02-04T07:39:36.168Z,20
2018-02-04T07:40:16.702Z,20
2018-02-04T07:40:57.370Z,20
2018-02-04T07:41:37.864Z,25
2018-02-04T07:42:18.419Z,25
2018-02-04T07:42:58.961Z,25
2018-02-04T07:43:39.539Z,25
2018-02-04T07:44:20.098Z,25
2018-02-04T07:45:00.570Z,25
2018-02-04T07:45:42.602Z,25
2018-02-04T07:46:23.233Z,25
2018-02-04T07:47:03.873Z,25
2018-02-04T07:47:45.097Z,25
2018-02-04T07:48:25.655Z,25
2018-02-04T07:49:06.159Z,25
2018-02-04T07:49:46.706Z,25
2018-02-04T07:50:27.244Z,25
2018-02-04T07:51:07.748Z,30
2018-02-04T07:51:48.276Z,30
2018-02-04T07:52:28.918Z,30
2018-02-04T07:53:09.421Z,30
2018-02-04T07:53:49.923Z,35
2018-02-04T07:54:30.469Z,35
2018-02-04T07:55:11.212Z,35
2018-02-04T07:55:51.747Z,35
2018-02-04T07:56:32.280Z,40
2018-02-04T07:57:12.849Z,40
2018-02-04T07:57:53.373Z,40
2018-02-04T07:58:34.154Z,40
2018-02-04T07:59:14.715Z,40
2018-02-04T07:59:55.332Z,45
2018-02-04T08:00:35.841Z,45
2018-02-04T08:01:16.441Z,45
2018-02-04T08:01:57.010Z,50
2018-02-04T08:02:37.553Z,50
2018-02-04T08:03:18.472Z,50
2018-02-04T08:03:58.713Z,50
2018-02-04T08:06:30.427Z,55
2018-02-04T08:07:10.946Z,55
2018-02-04T08:07:51.499Z,55
2018-02-04T08:08:31.978Z,55
2018-02-04T08:09:12.653Z,55
2018-02-04T08:09:53.194Z,50
2018-02-04T08:10:33.794Z,50
2018-02-04T08:11:14.755Z,45
2018-02-04T08:11:55.249Z,45
2018-02-04T08:12:35.792Z,45
2018-02-04T08:13:18.049Z,45
2018-02-04T08:13:58.573Z,45
2018-02-04T08:14:40.725Z,40
2018-02-04T08:15:21.244Z,40
2018-02-04T08:16:01.802Z,40
2018-02-04T08:16:42.754Z,40
2018-02-04T08:17:23.128Z,40
2018-02-04T08:18:03.647Z,35
2018-02-04T08:18:44.221Z,35
2018-02-04T08:19:24.767Z,30
2018-02-04T08:20:05.299Z,30
2018-02-04T08:20:45.771Z,30
2018-02-04T08:21:26.347Z,30
2018-02-04T08:22:07.173Z,30
2018-02-04T08:22:48.175Z,30
2018-02-04T08:23:28.652Z,35
2018-02-04T08:24:09.139Z,35
2018-02-04T08:24:49.642Z,35
2018-02-04T08:25:30.150Z,35
2018-02-04T08:26:10.703Z,35
2018-02-04T08:26:51.234Z,35
2018-02-04T08:27:31.869Z,40
2018-02-04T08:28:12.627Z,40
2018-02-04T08:28:53.117Z,40
2018-02-04T08:29:33.743Z,40
2018-02-04T08:30:14.415Z,40
2018-02-04T08:30:55.026Z,40
2018-02-04T08:31:35.789Z,40
2018-02-04T08:32:16.703Z,40
2018-02-04T08:32:57.270Z,40
2018-02-04T08:33:38.896Z,40
2018-02-04T08:34:20.131Z,40
2018-02-04T08:35:00.893Z,40
2018-02-04T08:35:42.860Z,40
2018-02-04T08:36:22.020Z,45
2018-02-04T08:37:02.554Z,45
2018-02-04T08:37:43.213Z,40
2018-02-04T08:38:24.003Z,40
2018-02-04T08:39:04.426Z,40
2018-02-04T08:39:45.316Z,40
2018-02-04T08:40:25.937Z,40
2018-02-04T08:41:06.459Z,40
2018-02-04T08:41:47.061Z,40
2018-02-04T08:42:27.711Z,40
2018-02-04T08:43:08.251Z,40
2018-02-04T08:43:48.811Z,40
2018-02-04T08:44:29.335Z,40
2018-02-04T08:45:09.929Z,40
2018-02-04T08:45:50.484Z,40
2018-02-04T08:46:30.982Z,40
2018-02-04T08:47:11.541Z,40
2018-02-04T08:47:52.052Z,40
2018-02-04T08:48:32.632Z,40
2018-02-04T08:49:13.155Z,40
2018-02-04T08:49:53.695Z,40
2018-02-04T08:50:34.232Z,40
2018-02-04T08:51:14.786Z,40
2018-02-04T08:51:55.296Z,40
2018-02-04T08:52:35.807Z,40
2018-02-04T08:53:16.402Z,45
2018-02-04T08:53:56.998Z,45
2018-02-04T08:54:37.540Z,45
2018-02-04T08:55:18.117Z,50
2018-02-04T08:55:58.605Z,50
2018-02-04T08:56:39.155Z,50
2018-02-04T08:57:19.698Z,50
2018-02-04T08:58:00.207Z,50
2018-02-04T08:58:40.763Z,55
2018-02-04T08:59:21.424Z,55
2018-02-04T09:00:01.950Z,55
2018-02-04T09:00:42.508Z,55
2018-02-04T09:01:23.339Z,55
2018-02-04T09:02:04.467Z,55
2018-02-04T09:03:02.307Z,55
2018-02-04T09:03:42.886Z,55
2018-02-04T09:04:23.526Z,55
2018-02-04T09:05:04.116Z,50
2018-02-04T09:05:44.601Z,50
2018-02-04T09:06:25.384Z,50
2018-02-04T09:07:05.826Z,50
2018-02-04T09:07:46.364Z,45
2018-02-04T09:08:26.991Z,45
2018-02-04T09:09:07.638Z,45
2018-02-04T09:09:48.198Z,45
2018-02-04T09:10:28.732Z,45
2018-02-04T09:11:09.308Z,45
2018-02-04T09:11:49.882Z,45
2018-02-04T09:12:30.429Z,45
2018-02-04T09:13:11.505Z,45
2018-02-04T09:13:52.162Z,45
2018-02-04T09:14:34.749Z,45
2018-02-04T09:15:14.948Z,45
2018-02-04T09:15:55.576Z,50
2018-02-04T09:16:36.108Z,50
2018-02-04T09:17:16.656Z,55
2018-02-04T09:17:57.181Z,55
2018-02-04T09:18:37.779Z,55
2018-02-04T09:19:18.307Z,55
2018-02-04T09:19:58.909Z,55
2018-02-04T09:20:39.402Z,55
2018-02-04T09:21:20.109Z,55
2018-02-04T09:22:00.548Z,55
2018-02-04T09:22:41.112Z,55
2018-02-04T09:23:21.612Z,55
2018-02-04T09:24:02.189Z,55
2018-02-04T09:24:42.728Z,55
2018-02-04T09:25:23.251Z,60
2018-02-04T09:26:03.898Z,60
2018-02-04T09:26:44.550Z,60
2018-02-04T09:27:25.104Z,60
2018-02-04T09:28:05.678Z,65
2018-02-04T09:28:46.234Z,65
2018-02-04T09:29:26.754Z,65
2018-02-04T09:30:07.271Z,70
2018-02-04T09:30:47.858Z,70
2018-02-04T09:31:28.340Z,70
2018-02-04T09:32:08.826Z,70
2018-02-04T09:32:49.455Z,70
2018-02-04T09:33:30.651Z,65
2018-02-04T09:34:10.507Z,60
2018-02-04T09:34:51.096Z,55
2018-02-04T09:35:31.594Z,55
2018-02-04T09:36:12.195Z,55
2018-02-04T09:36:52.632Z,50
2018-02-04T09:37:33.231Z,50
2018-02-04T09:38:13.763Z,45
2018-02-04T09:38:54.275Z,45
2018-02-04T09:39:35.008Z,40
2018-02-04T09:40:16.093Z,40
2018-02-04T09:40:56.594Z,35
2018-02-04T09:41:37.250Z,30
2018-02-04T09:42:17.842Z,30
2018-02-04T09:42:58.422Z,25
2018-02-04T09:43:39.200Z,25
2018-02-04T09:44:19.959Z,25
2018-02-04T09:45:00.479Z,20
2018-02-04T09:45:41.026Z,20
2018-02-04T09:46:21.572Z,20
2018-02-04T09:47:02.430Z,20
2018-02-04T09:47:43.017Z,15
2018-02-04T09:48:23.489Z,15
2018-02-04T09:49:06.402Z,15
2018-02-04T09:49:52.959Z,20
2018-02-04T09:50:36.338Z,20
2018-02-04T09:53:59.754Z,20
2018-02-04T09:54:41.459Z,20
2018-02-04T09:55:22.265Z,20
2018-02-04T09:56:02.796Z,20
2018-02-04T09:56:43.351Z,25
2018-02-04T09:57:23.930Z,25
2018-02-04T09:58:04.455Z,25
2018-02-04T09:58:45.107Z,25